Time;durP1;ratioP1;P1;durP2;ratioP2;P2;SDS_P1;SDS_P2;PMS_P1;PMS_P2;Temp;Humidity;BMP_temperature;BMP_pressure;BME280_temperature;BME280_humidity;BME280_pressure;Samples;Min_cycle;Max_cycle;Signal;HPM_P1;HPM_P2
2022/08/21 00:01:22;;;;;;;2.47;1.10;;;23.80;61.90;;;;;;5092548;28;20076;-66
2022/08/21 00:03:48;;;;;;;2.90;1.08;;;23.80;61.90;;;;;;5092211;28;20109;-66
2022/08/21 00:06:14;;;;;;;4.15;1.10;;;23.80;61.90;;;;;;5092173;28;20031;-66
2022/08/21 00:08:39;;;;;;;2.70;1.00;;;23.80;61.90;;;;;;5093201;28;20522;-66
2022/08/21 00:11:05;;;;;;;3.28;1.30;;;23.80;62.00;;;;;;5092416;28;20048;-66
2022/08/21 00:13:31;;;;;;;2.85;1.10;;;23.80;62.00;;;;;;5092607;28;20040;-66
2022/08/21 00:15:57;;;;;;;4.40;1.23;;;23.80;62.00;;;;;;5093217;28;20047;-66
2022/08/21 00:18:23;;;;;;;3.50;1.30;;;23.80;62.10;;;;;;5092195;28;20506;-66
2022/08/21 00:20:49;;;;;;;3.60;1.05;;;23.80;62.10;;;;;;5092999;28;20044;-66
2022/08/21 00:23:14;;;;;;;2.88;1.30;;;23.80;62.10;;;;;;5092807;28;20047;-66
2022/08/21 00:25:41;;;;;;;2.60;0.98;;;23.80;62.10;;;;;;5092319;28;20032;-66
2022/08/21 00:28:07;;;;;;;2.60;1.17;;;23.80;62.10;;;;;;5093151;28;20048;-66
2022/08/21 00:30:33;;;;;;;4.18;1.45;;;23.80;62.10;;;;;;5092326;28;20051;-66
2022/08/21 00:32:58;;;;;;;3.60;1.27;;;23.80;62.20;;;;;;5092074;28;20344;-66
2022/08/21 00:35:30;;;;;;;2.15;1.00;;;23.70;62.20;;;;;;5092515;28;20071;-66
2022/08/21 00:37:56;;;;;;;1.98;0.93;;;23.70;62.20;;;;;;5092849;28;20076;-66
2022/08/21 00:40:32;;;;;;;3.42;1.20;;;23.70;62.20;;;;;;5091924;28;20082;-66
2022/08/21 00:42:58;;;;;;;4.15;1.38;;;23.70;62.20;;;;;;5091620;28;20465;-66
2022/08/21 00:45:23;;;;;;;3.15;1.20;;;23.70;62.20;;;;;;5092566;28;20132;-66
2022/08/21 00:47:50;;;;;;;3.17;1.30;;;23.70;62.20;;;;;;5092067;28;20040;-66
2022/08/21 00:50:15;;;;;;;2.58;1.17;;;23.70;62.20;;;;;;5092140;28;20040;-65
2022/08/21 00:52:41;;;;;;;4.65;1.83;;;23.70;62.20;;;;;;5092590;28;20048;-65
2022/08/21 00:55:07;;;;;;;2.75;0.98;;;23.70;62.20;;;;;;5091282;28;20043;-65
2022/08/21 00:57:41;;;;;;;3.38;1.40;;;23.70;62.30;;;;;;5096210;28;20043;-65
2022/08/21 01:00:08;;;;;;;2.15;1.02;;;23.70;62.30;;;;;;5095490;28;20505;-65
2022/08/21 01:02:34;;;;;;;2.58;0.90;;;23.70;62.30;;;;;;5095623;28;20051;-65
2022/08/21 01:04:59;;;;;;;3.53;1.25;;;23.70;62.30;;;;;;5096820;28;20051;-65
2022/08/21 01:07:25;;;;;;;3.70;1.67;;;23.70;62.40;;;;;;5095596;28;20067;-65
2022/08/21 01:09:51;;;;;;;2.55;0.95;;;23.70;62.40;;;;;;5095242;28;20048;-65
2022/08/21 01:12:17;;;;;;;1.83;0.90;;;23.70;62.40;;;;;;5094920;28;20036;-65
2022/08/21 01:14:42;;;;;;;1.85;1.02;;;23.70;62.40;;;;;;5077049;28;20411;-65
2022/08/21 01:17:08;;;;;;;1.83;0.70;;;23.70;62.40;;;;;;5095132;28;20052;-65
2022/08/21 01:19:34;;;;;;;2.78;1.10;;;23.70;62.50;;;;;;5077867;28;20112;-65
2022/08/21 01:21:59;;;;;;;1.48;0.80;;;23.70;62.50;;;;;;5095233;28;20043;-65
2022/08/21 01:24:25;;;;;;;3.60;1.27;;;23.70;62.50;;;;;;5095769;28;20044;-65
2022/08/21 01:26:50;;;;;;;3.08;1.33;;;23.70;62.50;;;;;;5095650;28;20050;-65
2022/08/21 01:29:19;;;;;;;3.25;1.10;;;23.70;62.50;;;;;;5093861;28;20119;-65
2022/08/21 01:31:45;;;;;;;2.55;1.05;;;23.60;62.50;;;;;;5096236;28;20094;-65
2022/08/21 01:34:11;;;;;;;2.78;1.10;;;23.60;62.60;;;;;;5096054;28;20044;-66
2022/08/21 01:36:36;;;;;;;2.33;1.00;;;23.60;62.60;;;;;;5127791;27;20418;-65
2022/08/21 01:39:03;;;;;;;3.63;1.30;;;23.70;62.70;;;;;;5095812;28;20044;-65
2022/08/21 01:41:28;;;;;;;2.35;0.90;;;23.60;62.60;;;;;;5095628;28;20217;-65
2022/08/21 01:43:54;;;;;;;1.50;0.90;;;23.60;62.70;;;;;;5095219;28;20121;-65
2022/08/21 01:46:19;;;;;;;2.40;1.20;;;23.60;62.70;;;;;;5095207;28;20128;-65
2022/08/21 01:48:45;;;;;;;3.33;1.20;;;23.60;62.70;;;;;;5095642;28;20127;-65
2022/08/21 01:51:11;;;;;;;2.17;1.00;;;23.60;62.70;;;;;;5094607;28;20119;-65
2022/08/21 01:53:37;;;;;;;2.53;0.88;;;23.60;62.80;;;;;;5095308;28;20044;-65
2022/08/21 01:56:04;;;;;;;3.40;0.95;;;23.60;62.80;;;;;;5095310;28;20109;-65
2022/08/21 01:58:29;;;;;;;2.92;1.23;;;23.60;62.80;;;;;;5094576;28;20043;-65
2022/08/21 02:00:55;;;;;;;2.55;1.00;;;23.60;62.80;;;;;;5095216;28;20372;-65
2022/08/21 02:03:20;;;;;;;3.50;1.55;;;23.60;62.80;;;;;;5095360;28;20373;-65
2022/08/21 02:05:46;;;;;;;2.85;1.00;;;23.60;62.80;;;;;;5093893;28;20510;-65
2022/08/21 02:08:11;;;;;;;3.53;1.20;;;23.60;62.80;;;;;;5127469;27;20047;-65
2022/08/21 02:10:37;;;;;;;2.47;0.98;;;23.60;62.80;;;;;;5093153;28;20127;-65
2022/08/21 02:13:02;;;;;;;3.53;1.17;;;23.60;62.80;;;;;;5095263;28;20040;-65
2022/08/21 02:15:28;;;;;;;2.17;1.10;;;23.60;62.90;;;;;;5094899;28;20088;-65
2022/08/21 02:17:56;;;;;;;2.88;1.23;;;23.60;62.90;;;;;;5127017;27;20036;-65
2022/08/21 02:20:25;;;;;;;2.38;1.00;;;23.60;62.90;;;;;;5094638;28;20421;-66
2022/08/21 02:22:51;;;;;;;4.97;1.52;;;23.60;62.90;;;;;;5093947;28;20052;-65
2022/08/21 02:25:17;;;;;;;3.55;1.10;;;23.60;63.60;;;;;;5093777;28;20048;-65
2022/08/21 02:27:43;;;;;;;1.83;1.00;;;23.60;63.00;;;;;;5095161;28;20076;-66
2022/08/21 02:30:11;;;;;;;2.38;1.20;;;23.60;63.00;;;;;;5094798;28;20060;-65
2022/08/21 02:32:37;;;;;;;2.38;1.00;;;23.60;63.00;;;;;;5093856;28;20197;-65
2022/08/21 02:35:03;;;;;;;3.85;0.90;;;23.50;63.00;;;;;;5094865;28;20074;-65
2022/08/21 02:37:28;;;;;;;2.22;1.02;;;23.60;63.10;;;;;;5094432;28;20040;-65
2022/08/21 02:39:54;;;;;;;2.47;1.05;;;23.50;63.10;;;;;;5093958;28;20048;-65
2022/08/21 02:42:19;;;;;;;3.17;1.15;;;23.50;63.10;;;;;;5094483;28;20043;-65
2022/08/21 02:44:45;;;;;;;1.35;0.80;;;23.50;63.00;;;;;;5094702;28;20055;-65
2022/08/21 02:47:10;;;;;;;3.63;1.20;;;23.50;63.00;;;;;;5094104;28;20119;-65
2022/08/21 02:49:36;;;;;;;3.20;1.10;;;23.50;63.10;;;;;;5092242;28;20458;-65
2022/08/21 02:52:01;;;;;;;4.43;1.20;;;23.50;63.10;;;;;;5092972;28;20052;-66
2022/08/21 02:54:27;;;;;;;2.03;1.13;;;23.50;63.10;;;;;;5093084;28;20051;-65
2022/08/21 02:56:52;;;;;;;2.97;1.13;;;23.50;63.10;;;;;;5126560;27;20044;-65
2022/08/21 02:59:18;;;;;;;3.25;1.10;;;23.50;63.10;;;;;;5094271;28;20040;-65
2022/08/21 03:01:44;;;;;;;3.15;1.20;;;23.50;63.20;;;;;;5092220;28;20050;-65
2022/08/21 03:04:10;;;;;;;2.63;1.38;;;23.50;63.20;;;;;;5094135;28;20048;-65
2022/08/21 03:06:35;;;;;;;2.25;1.00;;;23.50;63.20;;;;;;5093935;28;20089;-65
2022/08/21 03:09:01;;;;;;;2.17;1.02;;;23.50;63.20;;;;;;5093369;28;20048;-65
2022/08/21 03:11:26;;;;;;;3.47;1.38;;;23.50;63.20;;;;;;5093884;28;20093;-65
2022/08/21 03:13:52;;;;;;;2.72;1.00;;;23.40;63.10;;;;;;5093565;28;20403;-65
2022/08/21 03:16:19;;;;;;;3.08;1.40;;;23.40;63.10;;;;;;5093877;28;20376;-65
2022/08/21 03:18:44;;;;;;;3.35;1.40;;;23.50;63.20;;;;;;5093245;28;20097;-64
2022/08/21 03:21:10;;;;;;;2.75;1.27;;;23.40;63.10;;;;;;5093192;28;20036;-65
2022/08/21 03:23:36;;;;;;;2.15;0.80;;;23.40;63.20;;;;;;5093638;28;20048;-65
2022/08/21 03:26:01;;;;;;;2.97;1.17;;;23.40;63.20;;;;;;5094061;28;20051;-65
2022/08/21 03:28:27;;;;;;;3.38;1.17;;;23.40;63.20;;;;;;5092758;28;20036;-65
2022/08/21 03:30:53;;;;;;;4.18;1.20;;;23.40;63.20;;;;;;5093598;28;20123;-65
2022/08/21 03:33:19;;;;;;;3.28;1.00;;;23.40;63.20;;;;;;5093336;28;20079;-65
2022/08/21 03:35:48;;;;;;;3.20;1.20;;;23.40;63.30;;;;;;5093027;28;20395;-65
2022/08/21 03:38:14;;;;;;;2.70;1.00;;;23.40;63.20;;;;;;5092049;28;20075;-65
2022/08/21 03:40:41;;;;;;;3.35;1.35;;;23.40;63.80;;;;;;5094150;28;20124;-65
2022/08/21 03:43:08;;;;;;;2.55;1.10;;;23.40;63.30;;;;;;5093355;28;20044;-65
2022/08/21 03:45:34;;;;;;;3.80;1.20;;;23.40;63.30;;;;;;5093077;28;20502;-65
2022/08/21 03:48:02;;;;;;;3.85;1.25;;;23.40;63.30;;;;;;5093171;28;20040;-65
2022/08/21 03:50:30;;;;;;;2.75;1.27;;;23.40;63.30;;;;;;5092101;28;20051;-65
2022/08/21 03:52:55;;;;;;;2.77;1.17;;;23.40;63.30;;;;;;5092090;28;20392;-65
2022/08/21 03:55:21;;;;;;;4.47;1.80;;;23.40;63.30;;;;;;5093091;28;20808;-65
2022/08/21 03:57:46;;;;;;;2.65;1.15;;;23.40;63.40;;;;;;5092438;28;20036;-65
2022/08/21 04:00:13;;;;;;;2.75;1.23;;;23.40;63.40;;;;;;5093028;28;20051;-65
2022/08/21 04:02:39;;;;;;;2.90;1.17;;;23.40;63.40;;;;;;5090336;28;20131;-65
2022/08/21 04:05:05;;;;;;;2.50;1.20;;;23.40;63.40;;;;;;5092036;28;20043;-65
2022/08/21 04:07:31;;;;;;;2.83;1.02;;;23.40;63.40;;;;;;5092672;28;20052;-65
2022/08/21 04:09:57;;;;;;;2.20;1.08;;;23.40;63.40;;;;;;5093284;28;20096;-65
2022/08/21 04:12:23;;;;;;;3.10;1.27;;;23.40;63.40;;;;;;5092150;28;20040;-65
2022/08/21 04:14:49;;;;;;;2.67;1.23;;;23.40;63.40;;;;;;5091799;28;20097;-65
2022/08/21 04:17:15;;;;;;;3.75;1.20;;;23.40;63.40;;;;;;5091894;28;20548;-65
2022/08/21 04:19:40;;;;;;;2.83;1.10;;;23.40;63.40;;;;;;5092720;28;20052;-65
2022/08/21 04:22:06;;;;;;;2.80;1.35;;;23.40;63.40;;;;;;5092999;28;20036;-65
2022/08/21 04:24:31;;;;;;;3.42;1.10;;;23.40;63.50;;;;;;5090536;28;20036;-65
2022/08/21 04:26:57;;;;;;;2.58;1.20;;;23.30;63.40;;;;;;5093067;28;20040;-65
2022/08/21 04:29:22;;;;;;;4.63;1.50;;;23.30;63.40;;;;;;5092286;28;20051;-65
2022/08/21 04:31:48;;;;;;;2.75;1.10;;;23.30;63.40;;;;;;5091737;28;20055;-65
2022/08/21 04:34:13;;;;;;;2.70;1.10;;;23.30;63.40;;;;;;5091055;28;20044;-65
2022/08/21 04:36:39;;;;;;;2.30;1.13;;;23.30;63.40;;;;;;5091226;28;20051;-65
2022/08/21 04:39:04;;;;;;;3.47;1.27;;;23.30;63.50;;;;;;5092214;28;20040;-65
2022/08/21 04:41:30;;;;;;;3.30;1.25;;;23.30;63.50;;;;;;5092451;28;20040;-65
2022/08/21 04:43:56;;;;;;;3.40;1.25;;;23.30;63.50;;;;;;5091336;28;20138;-65
2022/08/21 04:46:22;;;;;;;4.95;2.10;;;23.30;63.50;;;;;;5091574;28;20129;-65
2022/08/21 04:48:48;;;;;;;2.45;1.35;;;23.30;63.50;;;;;;5092670;28;20037;-65
2022/08/21 04:51:17;;;;;;;2.88;1.50;;;23.30;63.50;;;;;;5092321;28;20043;-65
2022/08/21 04:53:49;;;;;;;2.70;1.27;;;23.30;63.50;;;;;;5091971;28;20141;-65
2022/08/21 04:56:38;;;;;;;2.83;1.20;;;23.30;63.50;;;;;;5091294;28;20046;-65
2022/08/21 04:59:05;;;;;;;2.67;1.10;;;23.30;63.50;;;;;;5081522;28;20464;-65
2022/08/21 05:01:34;;;;;;;2.20;0.95;;;23.30;63.60;;;;;;5091597;28;20036;-65
2022/08/21 05:03:59;;;;;;;2.97;1.30;;;23.20;63.50;;;;;;5091450;28;20051;-65
2022/08/21 05:06:26;;;;;;;3.35;1.10;;;23.30;63.60;;;;;;5072984;28;20036;-65
2022/08/21 05:08:52;;;;;;;3.10;1.30;;;23.30;63.50;;;;;;5090235;28;20055;-65
2022/08/21 05:11:19;;;;;;;2.58;1.13;;;23.30;63.60;;;;;;5074228;28;20048;-65
2022/08/21 05:13:45;;;;;;;1.88;1.05;;;23.30;64.10;;;;;;5090003;28;20048;-65
2022/08/21 05:16:10;;;;;;;1.92;1.00;;;23.30;63.60;;;;;;5092299;28;20094;-64
2022/08/21 05:18:36;;;;;;;2.33;1.10;;;23.30;63.70;;;;;;5092178;28;20085;-65
2022/08/21 05:21:02;;;;;;;2.28;1.17;;;23.30;63.70;;;;;;5124068;28;20562;-65
2022/08/21 05:23:27;;;;;;;2.58;1.25;;;23.30;63.70;;;;;;5091930;28;20040;-65
2022/08/21 05:25:53;;;;;;;1.90;0.98;;;23.30;63.70;;;;;;5092295;28;20055;-64
2022/08/21 05:28:19;;;;;;;1.63;0.90;;;23.30;63.80;;;;;;5091410;28;20483;-65
2022/08/21 05:30:44;;;;;;;3.45;1.15;;;23.30;63.80;;;;;;5092091;28;20052;-65
2022/08/21 05:33:10;;;;;;;2.67;1.10;;;23.30;63.80;;;;;;5091043;28;20059;-65
2022/08/21 05:35:35;;;;;;;4.38;1.30;;;23.30;63.80;;;;;;5091269;28;20052;-65
2022/08/21 05:38:01;;;;;;;2.42;1.08;;;23.30;63.80;;;;;;5092311;28;20036;-65
2022/08/21 05:40:27;;;;;;;2.90;1.20;;;23.30;63.70;;;;;;5091807;28;20507;-65
2022/08/21 05:42:53;;;;;;;2.83;1.20;;;23.40;63.70;;;;;;5093078;28;20039;-65
2022/08/21 05:45:19;;;;;;;1.95;1.00;;;23.40;63.70;;;;;;5095124;28;20474;-65
2022/08/21 05:47:44;;;;;;;2.28;1.13;;;23.30;63.60;;;;;;5095883;28;20036;-65
2022/08/21 05:50:10;;;;;;;2.53;0.98;;;23.30;63.60;;;;;;5093821;28;20043;-65
2022/08/21 05:52:35;;;;;;;2.08;1.00;;;23.30;63.50;;;;;;5095239;28;20040;-65
2022/08/21 05:55:01;;;;;;;2.40;1.00;;;23.30;63.40;;;;;;5095657;28;20039;-65
2022/08/21 05:57:27;;;;;;;3.00;1.10;;;23.30;63.40;;;;;;5094471;28;20152;-65
2022/08/21 05:59:52;;;;;;;1.92;1.20;;;23.30;64.00;;;;;;5095563;28;20044;-65
2022/08/21 06:02:19;;;;;;;2.00;1.00;;;23.30;63.30;;;;;;5095358;28;20097;-65
2022/08/21 06:04:44;;;;;;;3.42;1.08;;;23.30;63.30;;;;;;5094823;28;20048;-65
2022/08/21 06:07:10;;;;;;;2.05;1.00;;;23.30;63.30;;;;;;5095438;28;20039;-65
2022/08/21 06:09:37;;;;;;;1.90;0.90;;;23.30;63.30;;;;;;5095239;28;20051;-65
2022/08/21 06:12:08;;;;;;;3.00;1.05;;;23.30;63.30;;;;;;5094698;28;20039;-65
2022/08/21 06:14:33;;;;;;;2.72;1.00;;;23.30;63.40;;;;;;5095060;28;20158;-65
2022/08/21 06:17:06;;;;;;;2.72;1.25;;;23.30;63.40;;;;;;5094524;28;20135;-64
2022/08/21 06:19:32;;;;;;;2.72;1.00;;;23.30;63.40;;;;;;5094920;28;20472;-65
2022/08/21 06:21:58;;;;;;;1.73;0.88;;;23.30;63.40;;;;;;5095157;28;20048;-65
2022/08/21 06:24:23;;;;;;;2.78;1.20;;;23.30;63.40;;;;;;5094154;28;20052;-65
2022/08/21 06:26:49;;;;;;;2.33;1.00;;;23.30;63.50;;;;;;5094789;28;20048;-65
2022/08/21 06:29:16;;;;;;;1.65;0.90;;;23.30;63.40;;;;;;5094364;28;20085;-65
2022/08/21 06:31:42;;;;;;;2.10;1.05;;;23.30;63.50;;;;;;5094053;28;20101;-65
2022/08/21 06:34:08;;;;;;;2.55;1.05;;;23.30;63.50;;;;;;5094511;28;20079;-65
2022/08/21 06:36:33;;;;;;;2.33;0.82;;;23.30;63.60;;;;;;5094115;28;20055;-65
2022/08/21 06:38:59;;;;;;;2.15;1.00;;;23.30;63.60;;;;;;5093998;28;20051;-65
2022/08/21 06:41:24;;;;;;;2.17;1.20;;;23.30;63.60;;;;;;5094526;28;20040;-65
2022/08/21 06:43:50;;;;;;;5.55;1.30;;;23.30;63.60;;;;;;5094700;28;20055;-63
2022/08/21 06:46:15;;;;;;;1.98;1.00;;;23.30;63.90;;;;;;5093499;28;20036;-63
2022/08/21 06:48:41;;;;;;;5.88;1.50;;;23.30;63.60;;;;;;5094511;28;20101;-63
2022/08/21 06:51:07;;;;;;;5.15;1.80;;;23.30;63.50;;;;;;5094353;28;20549;-64
2022/08/21 06:53:32;;;;;;;8.43;2.28;;;23.30;63.10;;;;;;5093419;28;20054;-64
2022/08/21 06:55:58;;;;;;;7.05;2.35;;;23.30;62.70;;;;;;5094365;28;20146;-64
2022/08/21 06:58:23;;;;;;;8.20;2.55;;;23.30;62.30;;;;;;5078347;28;20404;-63
2022/08/21 07:00:51;;;;;;;5.50;2.13;;;23.30;62.40;;;;;;5073081;28;20048;-63
2022/08/21 07:03:26;;;;;;;8.53;1.80;;;23.30;62.70;;;;;;5094333;28;20131;-63
2022/08/21 07:05:52;;;;;;;7.75;1.70;;;23.30;62.60;;;;;;5093624;28;20395;-64
2022/08/21 07:08:18;;;;;;;4.45;2.13;;;23.30;62.60;;;;;;5092759;28;20476;-63
2022/08/21 07:10:44;;;;;;;5.93;2.05;;;23.30;62.00;;;;;;5089660;28;20691;-63
2022/08/21 07:13:09;;;;;;;6.07;2.50;;;23.30;61.70;;;;;;5090866;28;20047;-65
2022/08/21 07:15:35;;;;;;;5.30;2.08;;;23.30;61.40;;;;;;5090330;28;20445;-63
2022/08/21 07:18:00;;;;;;;7.90;1.85;;;23.30;61.30;;;;;;5115212;27;20544;-62
2022/08/21 07:20:29;;;;;;;8.93;2.10;;;23.30;61.40;;;;;;5090688;28;20039;-64
2022/08/21 07:22:59;;;;;;;5.45;1.70;;;23.30;61.50;;;;;;5092938;28;20055;-63
2022/08/21 07:25:25;;;;;;;5.97;2.20;;;23.30;61.40;;;;;;5075922;28;20075;-64
2022/08/21 07:27:50;;;;;;;6.88;1.92;;;23.20;61.30;;;;;;5091935;28;20509;-64
2022/08/21 07:30:16;;;;;;;6.32;2.10;;;23.30;61.40;;;;;;5091986;28;20056;-64
2022/08/21 07:32:41;;;;;;;9.02;1.90;;;23.20;61.30;;;;;;5092789;28;20076;-64
2022/08/21 07:35:07;;;;;;;6.10;1.85;;;23.30;61.40;;;;;;5092252;28;20044;-63
2022/08/21 07:37:33;;;;;;;5.90;1.73;;;23.30;61.50;;;;;;5093066;28;20041;-64
2022/08/21 07:39:59;;;;;;;5.28;1.77;;;23.30;61.50;;;;;;5093182;28;20051;-64
2022/08/21 07:42:24;;;;;;;8.85;1.77;;;23.30;61.50;;;;;;5091706;28;20028;-63
2022/08/21 07:44:50;;;;;;;7.78;2.03;;;23.30;61.50;;;;;;5092172;28;20036;-64
2022/08/21 07:47:15;;;;;;;8.73;1.80;;;23.30;61.50;;;;;;5093050;28;20369;-64
2022/08/21 07:49:41;;;;;;;8.10;1.80;;;23.30;61.60;;;;;;5092865;28;20142;-64
2022/08/21 07:52:06;;;;;;;7.70;1.70;;;23.30;61.50;;;;;;5093423;28;20040;-64
2022/08/21 07:54:32;;;;;;;7.65;2.08;;;23.30;61.40;;;;;;5093050;28;20101;-63
2022/08/21 07:56:58;;;;;;;5.88;1.52;;;23.30;61.40;;;;;;5091454;28;20055;-63
2022/08/21 07:59:24;;;;;;;7.25;1.75;;;23.30;61.30;;;;;;5092285;28;20040;-63
2022/08/21 08:01:49;;;;;;;5.20;1.52;;;23.30;61.30;;;;;;5088737;28;20047;-63
2022/08/21 08:04:15;;;;;;;5.38;1.38;;;23.30;61.30;;;;;;5091749;28;20036;-63
2022/08/21 08:06:41;;;;;;;5.70;1.70;;;23.30;61.20;;;;;;5090790;28;20048;-67
2022/08/21 08:09:06;;;;;;;9.43;1.63;;;23.30;60.80;;;;;;5091720;28;20040;-66
2022/08/21 08:11:32;;;;;;;5.07;1.27;;;23.30;60.80;;;;;;5089807;28;20039;-65
2022/08/21 08:13:59;;;;;;;6.32;1.58;;;23.30;61.00;;;;;;5092670;28;20399;-65
2022/08/21 08:16:25;;;;;;;7.20;1.90;;;23.30;61.10;;;;;;5089299;28;20036;-66
2022/08/21 08:18:51;;;;;;;6.15;1.58;;;23.30;61.10;;;;;;5091509;28;20044;-65
2022/08/21 08:21:18;;;;;;;7.25;1.40;;;23.40;61.20;;;;;;5091610;28;20040;-66
2022/08/21 08:23:44;;;;;;;7.93;1.40;;;23.40;61.20;;;;;;5091270;28;20044;-66
2022/08/21 08:26:10;;;;;;;7.95;1.65;;;23.40;61.20;;;;;;5093022;28;20123;-65
2022/08/21 08:28:36;;;;;;;4.75;1.38;;;23.40;61.30;;;;;;5091053;28;20063;-65
2022/08/21 08:31:01;;;;;;;5.97;1.10;;;23.40;61.30;;;;;;5091779;28;20487;-64
2022/08/21 08:33:27;;;;;;;6.43;1.40;;;23.40;61.30;;;;;;5091051;28;20036;-65
2022/08/21 08:35:52;;;;;;;5.78;1.88;;;23.40;61.30;;;;;;5091986;28;20044;-66
2022/08/21 08:38:19;;;;;;;4.35;1.27;;;23.50;61.30;;;;;;5091319;28;20040;-65
2022/08/21 08:40:51;;;;;;;8.15;1.10;;;23.50;61.30;;;;;;5086231;28;20040;-62
2022/08/21 08:43:17;;;;;;;7.20;1.52;;;23.50;61.30;;;;;;5086842;28;20090;-64
2022/08/21 08:45:46;;;;;;;5.18;1.77;;;23.50;61.20;;;;;;5087578;28;20071;-66
2022/08/21 08:48:14;;;;;;;5.57;1.38;;;23.50;61.20;;;;;;5086197;28;20048;-67
2022/08/21 08:50:49;;;;;;;6.78;1.63;;;23.50;61.10;;;;;;5083784;28;20048;-66
2022/08/21 08:53:18;;;;;;;6.10;1.35;;;23.50;61.20;;;;;;5090433;28;20078;-67
2022/08/21 08:55:44;;;;;;;5.15;1.23;;;23.50;61.20;;;;;;5092143;28;20050;-66
2022/08/21 08:58:21;;;;;;;3.58;1.48;;;23.60;61.20;;;;;;5090805;28;20044;-66
2022/08/21 09:00:47;;;;;;;4.15;1.45;;;23.60;61.30;;;;;;5089705;28;20048;-65
2022/08/21 09:03:13;;;;;;;6.43;1.63;;;23.60;61.50;;;;;;5089719;28;20487;-65
2022/08/21 09:05:46;;;;;;;4.82;1.33;;;23.60;61.10;;;;;;5090596;28;20044;-65
2022/08/21 09:08:32;;;;;;;5.25;1.38;;;23.60;61.10;;;;;;5090216;28;20073;-65
2022/08/21 09:11:04;;;;;;;4.13;1.20;;;23.60;61.00;;;;;;5088792;28;20052;-65
2022/08/21 09:13:41;;;;;;;5.47;1.65;;;23.60;60.90;;;;;;5089713;28;20856;-67
2022/08/21 09:16:23;;;;;;;5.72;1.30;;;23.60;60.80;;;;;;5071699;28;20048;-65
2022/08/21 09:19:25;;;;;;;5.47;1.63;;;23.60;60.70;;;;;;5092253;28;20395;-64
2022/08/21 09:22:09;;;;;;;5.43;1.70;;;23.60;60.60;;;;;;5062828;28;20495;-65
2022/08/21 09:24:56;;;;;;;8.30;2.03;;;23.60;60.60;;;;;;5093469;28;20074;-65
2022/08/21 09:27:28;;;;;;;6.85;1.80;;;23.60;60.40;;;;;;5092380;28;20044;-65
2022/08/21 09:29:54;;;;;;;4.38;1.70;;;23.60;60.30;;;;;;5093795;28;20491;-66
2022/08/21 09:32:20;;;;;;;4.68;2.13;;;23.60;60.20;;;;;;5095256;28;20093;-65
2022/08/21 09:35:00;;;;;;;6.38;2.00;;;23.60;60.10;;;;;;5094897;28;20145;-64
2022/08/21 09:37:28;;;;;;;4.97;1.90;;;23.60;60.10;;;;;;5093268;28;20122;-65
2022/08/21 09:39:54;;;;;;;5.70;2.05;;;23.60;60.00;;;;;;5095377;28;20048;-66
2022/08/21 09:42:31;;;;;;;9.82;2.25;;;23.60;59.80;;;;;;5093095;28;20104;-66
2022/08/21 09:45:08;;;;;;;6.20;1.92;;;23.60;59.60;;;;;;5094011;28;20032;-65
2022/08/21 09:47:34;;;;;;;5.35;1.98;;;23.60;59.60;;;;;;5095269;28;20535;-66
2022/08/21 09:50:08;;;;;;;6.60;2.05;;;23.60;59.60;;;;;;5093630;28;20127;-65
2022/08/21 09:52:33;;;;;;;4.18;2.00;;;23.60;59.50;;;;;;5079815;28;20049;-65
2022/08/21 09:54:59;;;;;;;4.60;1.70;;;23.60;59.50;;;;;;5072969;28;20170;-65
2022/08/21 09:57:38;;;;;;;5.75;1.88;;;23.60;59.30;;;;;;5073383;28;20082;-64
2022/08/21 10:00:10;;;;;;;6.07;1.75;;;23.60;59.10;;;;;;5074627;28;20036;-64
2022/08/21 10:02:35;;;;;;;4.70;1.52;;;23.60;58.90;;;;;;5083291;28;20037;-64
2022/08/21 10:05:06;;;;;;;4.50;1.73;;;23.70;58.90;;;;;;5078302;28;20040;-64
2022/08/21 10:07:32;;;;;;;5.65;2.00;;;23.70;58.90;;;;;;5080595;28;20060;-64
2022/08/21 10:10:03;;;;;;;6.47;2.35;;;23.70;59.20;;;;;;5082125;28;20127;-64
2022/08/21 10:13:05;;;;;;;8.32;2.00;;;23.70;59.40;;;;;;5081197;28;20126;-64
2022/08/21 10:15:59;;;;;;;2.92;1.55;;;23.70;59.50;;;;;;5054619;28;20047;-64
2022/08/21 10:18:27;;;;;;;5.07;1.90;;;23.70;59.60;;;;;;5067633;28;20056;-65
2022/08/21 10:20:57;;;;;;;;;;;23.70;59.50;;;;;;5079910;28;20411;-64
2022/08/21 10:23:48;;;;;;;6.57;1.77;;;23.70;59.70;;;;;;5084232;28;19921;-64
2022/08/21 10:26:16;;;;;;;3.25;1.75;;;23.70;59.70;;;;;;5072184;28;20581;-66
2022/08/21 10:28:55;;;;;;;5.63;1.75;;;23.70;59.70;;;;;;5083680;28;20044;-66
2022/08/21 10:31:52;;;;;;;4.28;1.70;;;23.70;59.60;;;;;;5077661;28;20075;-65
2022/08/21 10:34:18;;;;;;;;;;;23.70;59.60;;;;;;5065617;28;20052;-64
2022/08/21 10:37:07;;;;;;;6.45;1.65;;;23.70;59.80;;;;;;5081201;28;19966;-65
2022/08/21 10:39:42;;;;;;;4.22;1.48;;;23.80;59.90;;;;;;5075675;28;20042;-66
2022/08/21 10:42:34;;;;;;;5.05;2.03;;;23.80;59.80;;;;;;5068412;28;20050;-65
2022/08/21 10:45:02;;;;;;;5.43;2.03;;;23.80;59.80;;;;;;5087092;28;20043;-65
2022/08/21 10:47:30;;;;;;;5.55;1.92;;;23.80;59.80;;;;;;5061763;28;20043;-65
2022/08/21 10:50:31;;;;;;;5.72;1.67;;;23.80;59.70;;;;;;5062980;28;20400;-64
2022/08/21 10:53:25;;;;;;;6.70;1.58;;;23.80;59.70;;;;;;5037126;28;20044;-65
2022/08/21 10:56:09;;;;;;;6.05;1.40;;;23.80;59.60;;;;;;5068267;28;20164;-65
2022/08/21 10:58:39;;;;;;;3.97;1.88;;;23.90;59.70;;;;;;5083372;28;20545;-65
2022/08/21 11:01:11;;;;;;;5.00;1.63;;;23.90;59.50;;;;;;5081387;28;20036;-64
2022/08/21 11:03:51;;;;;;;2.20;1.40;;;23.90;59.40;;;;;;5092566;28;20089;-67
2022/08/21 11:06:25;;;;;;;3.40;1.50;;;23.90;59.40;;;;;;5080485;28;20165;-64
2022/08/21 11:08:59;;;;;;;6.38;1.80;;;23.90;59.20;;;;;;5089709;28;20398;-64
2022/08/21 11:11:29;;;;;;;5.03;1.20;;;23.90;59.00;;;;;;5090637;28;20047;-64
2022/08/21 11:14:00;;;;;;;3.05;1.25;;;23.90;58.90;;;;;;5091596;28;20096;-64
2022/08/21 11:16:41;;;;;;;3.33;1.30;;;23.90;58.80;;;;;;5090965;28;20032;-65
2022/08/21 11:19:27;;;;;;;5.03;1.70;;;24.00;58.90;;;;;;5092242;28;20055;-64
2022/08/21 11:22:18;;;;;;;4.45;1.27;;;23.90;58.90;;;;;;5093521;28;20051;-64
2022/08/21 11:25:05;;;;;;;3.08;1.30;;;23.90;58.70;;;;;;5093302;28;20044;-65
2022/08/21 11:27:36;;;;;;;;;;;24.00;58.80;;;;;;5092590;28;20134;-65
2022/08/21 11:30:03;;;;;;;4.13;1.52;;;23.90;59.00;;;;;;5087744;28;20295;-65
2022/08/21 11:32:28;;;;;;;4.43;1.42;;;23.90;58.90;;;;;;5091522;28;20140;-64
2022/08/21 11:35:11;;;;;;;6.72;1.70;;;23.90;59.10;;;;;;5091560;28;20517;-64
2022/08/21 11:38:06;;;;;;;2.80;1.30;;;24.00;59.30;;;;;;5092440;28;20127;-65
2022/08/21 11:40:57;;;;;;;4.90;1.70;;;24.00;59.40;;;;;;5089883;28;20079;-65
2022/08/21 11:43:42;;;;;;;2.75;1.15;;;24.00;59.50;;;;;;5091589;28;20071;-65
2022/08/21 11:46:29;;;;;;;2.72;1.27;;;24.00;59.60;;;;;;5093143;28;20073;-64
2022/08/21 11:49:10;;;;;;;4.28;1.63;;;24.00;59.60;;;;;;5092445;28;20051;-64
2022/08/21 11:51:58;;;;;;;3.47;1.17;;;24.00;59.60;;;;;;5091594;28;20040;-65
2022/08/21 11:54:49;;;;;;;5.63;1.55;;;24.00;59.70;;;;;;5090804;28;20055;-65
2022/08/21 11:57:19;;;;;;;4.90;1.25;;;24.00;59.70;;;;;;5105391;27;20399;-65
2022/08/21 12:00:05;;;;;;;4.55;1.52;;;24.00;59.70;;;;;;5072698;28;20040;-65
2022/08/21 12:02:33;;;;;;;3.50;1.50;;;24.00;59.80;;;;;;5085262;28;20044;-65
2022/08/21 12:05:00;;;;;;;;;;;24.00;59.70;;;;;;5089924;28;20043;-65
2022/08/21 12:07:44;;;;;;;3.03;1.10;;;24.00;59.80;;;;;;5077513;28;19924;-65
2022/08/21 12:10:21;;;;;;;4.97;1.48;;;24.00;59.70;;;;;;5087515;28;20044;-65
2022/08/21 12:12:47;;;;;;;3.78;1.35;;;24.00;59.70;;;;;;5079985;28;20032;-61
2022/08/21 12:15:22;;;;;;;3.45;1.30;;;24.00;59.60;;;;;;5081643;28;20082;-64
2022/08/21 12:18:23;;;;;;;4.55;1.30;;;24.00;59.60;;;;;;5083694;28;20142;-66
2022/08/21 12:21:05;;;;;;;4.40;1.48;;;24.00;59.50;;;;;;5081989;28;20053;-65
2022/08/21 12:23:47;;;;;;;6.22;1.58;;;24.00;59.60;;;;;;5080946;28;20040;-64
2022/08/21 12:26:13;;;;;;;7.05;1.55;;;24.00;59.60;;;;;;5083863;28;20094;-64
2022/08/21 12:28:38;;;;;;;5.20;1.50;;;24.00;59.50;;;;;;5076859;28;20527;-67
2022/08/21 12:31:04;;;;;;;5.80;2.13;;;24.10;59.40;;;;;;5059396;28;20099;-67
2022/08/21 12:33:39;;;;;;;6.03;1.40;;;24.10;59.50;;;;;;5080357;28;20087;-67
2022/08/21 12:36:21;;;;;;;4.88;1.33;;;24.10;59.50;;;;;;5086412;28;20122;-67
2022/08/21 12:38:59;;;;;;;5.32;1.52;;;24.10;59.60;;;;;;5082154;28;20089;-66
2022/08/21 12:41:33;;;;;;;5.20;1.30;;;24.10;59.60;;;;;;5077193;28;20041;-67
2022/08/21 12:44:08;;;;;;;3.85;1.35;;;24.10;59.50;;;;;;5079693;28;20040;-66
2022/08/21 12:46:43;;;;;;;5.57;1.70;;;24.10;59.50;;;;;;5083441;28;20048;-66
2022/08/21 12:49:40;;;;;;;6.38;1.60;;;24.20;59.60;;;;;;5060826;28;20080;-67
2022/08/21 12:52:29;;;;;;;4.60;1.10;;;24.10;59.60;;;;;;5067857;28;20050;-67
2022/08/21 12:54:54;;;;;;;7.07;1.80;;;24.20;59.50;;;;;;5088939;28;20132;-66
2022/08/21 12:57:27;;;;;;;5.45;1.52;;;24.20;59.50;;;;;;5082792;28;20946;-67
2022/08/21 13:00:02;;;;;;;4.10;1.30;;;24.20;59.60;;;;;;5087239;28;20044;-66